Time;durP1;ratioP1;P1;durP2;ratioP2;P2;SDS_P1;SDS_P2;PMS_P1;PMS_P2;Temp;Humidity;BMP_temperature;BMP_pressure;BME280_temperature;BME280_humidity;BME280_pressure;Samples;Min_cycle;Max_cycle;Signal;HPM_P1;HPM_P2
2022/06/22 00:02:30;;;;;;;9.10;6.57;;;;;;;;;;6262423;28;20638;-63
2022/06/22 00:05:47;;;;;;;10.27;6.95;;;;;;;;;;6266809;28;20048;-64
2022/06/22 00:08:51;;;;;;;10.38;6.50;;;;;;;;;;6262537;28;20597;-64
2022/06/22 00:11:54;;;;;;;11.50;6.32;;;;;;;;;;6263756;28;21695;-63
2022/06/22 00:14:57;;;;;;;11.45;6.75;;;;;;;;;;6262567;28;20107;-64
2022/06/22 00:18:01;;;;;;;9.43;6.28;;;;;;;;;;6261921;28;20073;-64
2022/06/22 00:21:04;;;;;;;12.85;6.78;;;;;;;;;;6263556;28;20446;-63
2022/06/22 00:24:23;;;;;;;8.68;5.97;;;;;;;;;;6265854;28;20148;-64
2022/06/22 00:27:36;;;;;;;11.15;6.82;;;;;;;;;;6266394;28;20175;-65
2022/06/22 00:30:45;;;;;;;10.45;6.32;;;;;;;;;;6262034;28;20151;-63
2022/06/22 00:34:06;;;;;;;10.25;7.00;;;;;;;;;;6265949;28;20052;-63
2022/06/22 00:37:16;;;;;;;10.77;6.60;;;;;;;;;;6263084;28;20114;-62
2022/06/22 00:40:17;;;;;;;9.02;6.47;;;;;;;;;;6264600;28;20045;-61
2022/06/22 00:43:19;;;;;;;12.05;7.05;;;;;;;;;;6262385;28;20170;-63
2022/06/22 00:46:23;;;;;;;10.52;6.32;;;;;;;;;;6263057;28;20087;-62
2022/06/22 00:49:24;;;;;;;10.88;6.60;;;;;;;;;;6266538;28;20135;-63
2022/06/22 00:53:03;;;;;;;9.77;6.32;;;;;;;;;;6265064;28;20045;-65
2022/06/22 00:56:07;;;;;;;9.25;6.38;;;;;;;;;;6262467;28;20655;-61
2022/06/22 00:59:26;;;;;;;10.95;6.65;;;;;;;;;;6267988;28;20164;-61
2022/06/22 01:02:39;;;;;;;12.95;7.35;;;;;;;;;;6259286;28;20095;-63
2022/06/22 01:05:49;;;;;;;12.27;7.93;;;;;;;;;;6264002;28;20142;-62
2022/06/22 01:09:07;;;;;;;14.00;8.60;;;;;;;;;;6264396;28;20068;-63
2022/06/22 01:12:25;;;;;;;14.52;8.32;;;;;;;;;;6260145;28;20048;-62
2022/06/22 01:15:35;;;;;;;16.83;8.10;;;;;;;;;;6266156;28;20099;-62
2022/06/22 01:18:48;;;;;;;16.05;8.48;;;;;;;;;;6265942;28;20071;-61
2022/06/22 01:22:06;;;;;;;13.98;8.68;;;;;;;;;;6262312;28;20090;-62
2022/06/22 01:25:21;;;;;;;15.13;8.63;;;;;;;;;;6265580;28;20403;-62
2022/06/22 01:28:24;;;;;;;18.35;9.80;;;;;;;;;;6265620;28;20064;-63
2022/06/22 01:31:24;;;;;;;;;;;;;;;;;;6265406;28;20053;-61
2022/06/22 01:34:31;;;;;;;13.70;8.90;;;;;;;;;;6265032;28;20111;-62
2022/06/22 01:37:33;;;;;;;17.10;9.35;;;;;;;;;;6272415;28;20088;-65
2022/06/22 01:40:45;;;;;;;20.27;10.57;;;;;;;;;;6293127;28;20535;-64
2022/06/22 01:43:53;;;;;;;16.35;9.98;;;;;;;;;;6287917;28;20058;-64
2022/06/22 01:47:31;;;;;;;18.15;10.48;;;;;;;;;;6285034;28;20061;-65
2022/06/22 01:50:46;;;;;;;17.90;10.82;;;;;;;;;;6284465;28;20704;-66
2022/06/22 01:53:57;;;;;;;17.73;11.93;;;;;;;;;;6285344;28;20944;-64
2022/06/22 01:57:18;;;;;;;16.70;10.00;;;;;;;;;;6286967;28;20743;-65
2022/06/22 02:00:19;;;;;;;14.90;10.77;;;;;;;;;;6286632;28;20182;-65
2022/06/22 02:03:24;;;;;;;16.08;11.10;;;;;;;;;;6278518;28;20049;-67
2022/06/22 02:10:42;;;;;;;17.30;10.90;;;;;;;;;;6286551;28;20045;-64
2022/06/22 02:13:53;;;;;;;16.77;11.40;;;;;;;;;;6283225;28;20483;-64
2022/06/22 02:16:58;;;;;;;18.00;11.02;;;;;;;;;;6278875;28;20679;-63
2022/06/22 02:20:25;;;;;;;18.48;10.88;;;;;;;;;;6283032;28;20423;-65
2022/06/22 02:23:35;;;;;;;17.08;10.88;;;;;;;;;;6289468;28;20138;-63
2022/06/22 02:26:52;;;;;;;20.92;11.65;;;;;;;;;;6287633;28;20041;-64
2022/06/22 02:29:57;;;;;;;18.52;10.63;;;;;;;;;;6286516;28;20430;-65
2022/06/22 02:32:58;;;;;;;16.73;11.20;;;;;;;;;;6289667;28;20041;-64
2022/06/22 02:36:00;;;;;;;15.13;10.90;;;;;;;;;;6291675;28;20462;-65
2022/06/22 02:39:04;;;;;;;19.17;11.43;;;;;;;;;;6292001;28;20123;-66
2022/06/22 02:45:25;;;;;;;16.95;11.80;;;;;;;;;;6288325;28;20040;-63
2022/06/22 02:48:29;;;;;;;20.48;11.85;;;;;;;;;;6289646;28;20662;-67
2022/06/22 02:51:37;;;;;;;17.23;11.73;;;;;;;;;;6287334;28;20083;-65
2022/06/22 02:55:03;;;;;;;18.77;12.70;;;;;;;;;;6285163;28;20173;-66
2022/06/22 02:58:23;;;;;;;21.15;12.02;;;;;;;;;;6286270;28;21134;-64
2022/06/22 03:01:29;;;;;;;21.90;12.95;;;;;;;;;;6289530;28;20107;-64
2022/06/22 03:04:31;;;;;;;20.20;12.23;;;;;;;;;;6289795;28;20186;-64
2022/06/22 03:07:38;;;;;;;22.63;12.57;;;;;;;;;;6290958;28;20040;-63
2022/06/22 03:10:47;;;;;;;18.02;12.38;;;;;;;;;;6288792;28;20459;-65
2022/06/22 03:13:56;;;;;;;19.85;12.23;;;;;;;;;;6287269;28;20096;-65
2022/06/22 03:17:10;;;;;;;20.50;12.57;;;;;;;;;;6289860;28;20059;-66
2022/06/22 03:20:21;;;;;;;18.35;11.18;;;;;;;;;;6285700;28;20511;-65
2022/06/22 03:23:31;;;;;;;19.40;12.18;;;;;;;;;;6292005;28;20040;-63
2022/06/22 03:26:38;;;;;;;16.50;12.05;;;;;;;;;;6285463;28;20113;-63
2022/06/22 03:29:44;;;;;;;17.35;11.70;;;;;;;;;;6286894;28;20044;-65
2022/06/22 03:32:52;;;;;;;20.08;12.45;;;;;;;;;;6290108;28;20704;-64
2022/06/22 03:35:58;;;;;;;21.92;13.07;;;;;;;;;;6280695;28;20167;-63
2022/06/22 03:39:09;;;;;;;21.23;12.32;;;;;;;;;;6290842;28;20131;-62
2022/06/22 03:42:23;;;;;;;17.88;11.32;;;;;;;;;;6282749;28;20068;-62
2022/06/22 03:45:29;;;;;;;19.50;12.25;;;;;;;;;;6273286;28;20495;-63
2022/06/22 03:48:35;;;;;;;21.33;12.30;;;;;;;;;;6309622;28;20043;-64
2022/06/22 03:51:43;;;;;;;20.35;12.63;;;;;;;;;;6307251;28;20048;-64
2022/06/22 03:55:12;;;;;;;31.70;14.70;;;;;;;;;;6306823;28;20044;-63
2022/06/22 03:58:14;;;;;;;25.80;13.32;;;;;;;;;;6305257;28;20486;-63
2022/06/22 04:01:16;;;;;;;24.85;14.25;;;;;;;;;;6289425;28;20043;-62
2022/06/22 04:04:17;;;;;;;22.17;14.27;;;;;;;;;;6286500;28;20059;-62
2022/06/22 04:07:18;;;;;;;20.58;12.65;;;;;;;;;;6295336;28;20498;-64
2022/06/22 04:10:36;;;;;;;22.20;12.98;;;;;;;;;;6302482;28;20045;-62
2022/06/22 04:13:41;;;;;;;22.67;12.57;;;;;;;;;;6301145;28;20523;-64
2022/06/22 04:16:48;;;;;;;20.15;13.18;;;;;;;;;;6298018;28;20086;-64
2022/06/22 04:20:02;;;;;;;19.40;12.95;;;;;;;;;;6300090;28;20072;-63
2022/06/22 04:23:02;;;;;;;22.70;14.27;;;;;;;;;;6279992;28;20064;-66
2022/06/22 04:26:40;;;;;;;20.60;13.70;;;;;;;;;;6286752;28;20266;-63
2022/06/22 04:29:53;;;;;;;19.90;12.98;;;;;;;;;;6291079;28;20488;-65
2022/06/22 04:33:08;;;;;;;18.60;12.70;;;;;;;;;;6290921;28;20044;-66
2022/06/22 04:36:14;;;;;;;22.73;12.93;;;;;;;;;;6286829;28;20075;-64
2022/06/22 04:39:27;;;;;;;22.85;13.25;;;;;;;;;;6284653;28;20087;-66
2022/06/22 04:42:28;;;;;;;21.63;12.40;;;;;;;;;;6281561;28;20047;-64
2022/06/22 04:45:36;;;;;;;21.10;12.32;;;;;;;;;;6281176;28;20500;-63
2022/06/22 04:48:40;;;;;;;21.20;12.10;;;;;;;;;;6282002;28;20055;-66
2022/06/22 04:51:47;;;;;;;18.25;11.70;;;;;;;;;;6283750;28;20071;-65
2022/06/22 04:54:53;;;;;;;18.63;11.88;;;;;;;;;;6284560;28;20510;-66
2022/06/22 04:58:01;;;;;;;18.08;11.10;;;;;;;;;;6283066;28;20839;-65
2022/06/22 05:01:04;;;;;;;21.83;12.13;;;;;;;;;;6283458;28;20048;-64
2022/06/22 05:04:12;;;;;;;19.25;11.57;;;;;;;;;;6282485;28;20091;-65
2022/06/22 05:07:35;;;;;;;17.27;11.13;;;;;;;;;;6289898;28;20043;-66
2022/06/22 05:10:54;;;;;;;20.63;12.00;;;;;;;;;;6282814;28;20037;-66
2022/06/22 05:13:58;;;;;;;21.98;12.00;;;;;;;;;;6284012;28;20102;-65
2022/06/22 05:17:06;;;;;;;17.98;11.40;;;;;;;;;;6282934;28;20088;-64
2022/06/22 05:20:18;;;;;;;16.05;10.10;;;;;;;;;;6284550;28;20044;-65
2022/06/22 05:23:20;;;;;;;;;;;;;;;;;;6286984;28;20067;-66
2022/06/22 05:26:24;;;;;;;18.25;10.52;;;;;;;;;;6283094;28;19968;-65
2022/06/22 05:29:50;;;;;;;18.98;9.60;;;;;;;;;;6282788;28;20063;-66
2022/06/22 05:32:59;;;;;;;17.80;9.82;;;;;;;;;;6282851;28;20040;-65
2022/06/22 05:36:09;;;;;;;16.77;8.70;;;;;;;;;;6286587;28;20087;-65
2022/06/22 05:39:10;;;;;;;13.90;8.77;;;;;;;;;;6301501;28;20040;-65
2022/06/22 05:42:12;;;;;;;19.80;9.57;;;;;;;;;;6286551;28;20075;-65
2022/06/22 05:45:20;;;;;;;14.65;8.05;;;;;;;;;;6282238;28;20151;-64
2022/06/22 05:48:24;;;;;;;13.23;7.43;;;;;;;;;;6279966;28;20045;-66
2022/06/22 05:51:55;;;;;;;16.85;8.13;;;;;;;;;;6281928;28;20080;-66
2022/06/22 05:55:06;;;;;;;16.03;9.00;;;;;;;;;;6283141;28;20056;-65
2022/06/22 05:58:20;;;;;;;16.38;7.90;;;;;;;;;;6285178;28;20098;-63
2022/06/22 06:01:53;;;;;;;15.30;8.35;;;;;;;;;;6290350;28;20075;-64
2022/06/22 06:05:11;;;;;;;14.20;8.15;;;;;;;;;;6280452;28;20052;-63
2022/06/22 06:08:35;;;;;;;14.23;7.32;;;;;;;;;;6284161;28;20072;-63
2022/06/22 06:11:43;;;;;;;8.95;6.05;;;;;;;;;;6283886;28;20036;-63
2022/06/22 06:14:52;;;;;;;14.43;6.47;;;;;;;;;;6283216;28;20043;-67
2022/06/22 06:17:57;;;;;;;11.25;6.15;;;;;;;;;;6285384;28;20063;-67
2022/06/22 06:21:04;;;;;;;10.13;5.22;;;;;;;;;;6283367;28;20051;-64
2022/06/22 06:24:22;;;;;;;10.48;6.10;;;;;;;;;;6286043;28;20052;-64
2022/06/22 06:27:35;;;;;;;13.65;7.03;;;;;;;;;;6283154;28;20044;-67
2022/06/22 06:30:46;;;;;;;11.27;5.93;;;;;;;;;;6285788;28;20041;-65
2022/06/22 06:33:46;;;;;;;14.70;7.95;;;;;;;;;;6286445;28;20055;-64
2022/06/22 06:37:30;;;;;;;45.33;34.10;;;;;;;;;;6284656;28;20035;-65
2022/06/22 06:40:35;;;;;;;13.80;6.10;;;;;;;;;;6272124;28;20456;-65
2022/06/22 06:43:48;;;;;;;9.25;5.50;;;;;;;;;;6287575;28;20573;-65
2022/06/22 06:46:56;;;;;;;9.65;4.35;;;;;;;;;;6285546;28;20493;-65
2022/06/22 06:50:01;;;;;;;7.68;4.50;;;;;;;;;;6286680;28;20075;-67
2022/06/22 06:53:23;;;;;;;8.63;4.40;;;;;;;;;;6290229;28;20039;-65
2022/06/22 06:56:30;;;;;;;;;;;;;;;;;;6284064;28;20065;-65
2022/06/22 06:59:31;;;;;;;7.13;3.60;;;;;;;;;;6287839;28;19959;-65
2022/06/22 07:02:37;;;;;;;9.13;4.35;;;;;;;;;;6287422;28;20060;-66
2022/06/22 07:05:37;;;;;;;5.90;3.70;;;;;;;;;;6285005;28;20047;-68
2022/06/22 07:09:13;;;;;;;8.70;4.18;;;;;;;;;;6288712;28;20076;-69
2022/06/22 07:12:39;;;;;;;6.22;3.42;;;;;;;;;;6252242;28;20053;-65
2022/06/22 07:15:44;;;;;;;6.25;3.58;;;;;;;;;;6289402;28;20052;-66
2022/06/22 07:18:53;;;;;;;6.78;3.42;;;;;;;;;;6278251;28;20041;-66
2022/06/22 07:21:58;;;;;;;8.35;4.10;;;;;;;;;;6281851;28;20052;-66
2022/06/22 07:25:24;;;;;;;7.20;3.80;;;;;;;;;;6290223;28;20083;-66
2022/06/22 07:28:39;;;;;;;7.40;4.03;;;;;;;;;;6296981;28;20040;-66
2022/06/22 07:31:54;;;;;;;5.47;2.90;;;;;;;;;;6291234;28;20045;-66
2022/06/22 07:35:01;;;;;;;7.43;3.05;;;;;;;;;;6274248;28;20045;-66
2022/06/22 07:38:26;;;;;;;9.52;3.00;;;;;;;;;;6290509;28;20037;-66
2022/06/22 07:41:29;;;;;;;6.93;4.68;;;;;;;;;;6285950;28;20097;-66
2022/06/22 07:44:33;;;;;;;5.90;3.92;;;;;;;;;;6306037;28;20697;-66
2022/06/22 07:48:06;;;;;;;8.35;3.20;;;;;;;;;;6291504;28;20032;-66
2022/06/22 07:51:13;;;;;;;7.60;2.63;;;;;;;;;;6285920;28;20118;-66
2022/06/22 07:54:20;;;;;;;5.60;2.42;;;;;;;;;;6286194;28;20045;-66
2022/06/22 07:57:31;;;;;;;6.35;2.50;;;;;;;;;;6280500;28;20078;-66
2022/06/22 08:00:33;;;;;;;4.97;2.28;;;;;;;;;;6281431;28;20549;-66
2022/06/22 08:03:42;;;;;;;6.07;2.47;;;;;;;;;;6282423;28;20503;-66
2022/06/22 08:07:11;;;;;;;5.13;2.10;;;;;;;;;;6283752;28;20048;-66
2022/06/22 08:10:36;;;;;;;8.25;2.50;;;;;;;;;;6283000;28;20165;-66
2022/06/22 08:14:09;;;;;;;6.88;2.38;;;;;;;;;;6282945;28;20135;-66
2022/06/22 08:17:16;;;;;;;6.57;2.70;;;;;;;;;;6281062;28;20062;-66
2022/06/22 08:20:21;;;;;;;4.38;2.35;;;;;;;;;;6283571;28;20059;-66
2022/06/22 08:23:25;;;;;;;5.55;2.60;;;;;;;;;;6282126;28;20083;-65
2022/06/22 08:26:30;;;;;;;6.35;2.83;;;;;;;;;;6284485;28;20125;-67
2022/06/22 08:29:32;;;;;;;7.55;2.60;;;;;;;;;;6281032;28;20076;-65
2022/06/22 08:32:39;;;;;;;5.75;2.35;;;;;;;;;;6284964;28;20092;-65
2022/06/22 08:35:51;;;;;;;4.90;2.05;;;;;;;;;;6279605;28;20497;-66
2022/06/22 08:39:17;;;;;;;4.82;2.47;;;;;;;;;;6286370;28;20044;-67
2022/06/22 08:42:43;;;;;;;8.77;2.70;;;;;;;;;;6277590;28;20518;-67
2022/06/22 08:46:05;;;;;;;6.25;2.85;;;;;;;;;;6287701;28;20032;-66
2022/06/22 08:49:29;;;;;;;8.13;2.70;;;;;;;;;;6287017;28;20051;-65
2022/06/22 08:53:12;;;;;;;6.07;2.85;;;;;;;;;;6289925;28;20053;-66
2022/06/22 08:56:34;;;;;;;9.65;3.30;;;;;;;;;;6282959;28;20173;-66
2022/06/22 08:59:53;;;;;;;6.82;3.05;;;;;;;;;;6285530;28;20087;-66
2022/06/22 09:02:56;;;;;;;8.73;2.83;;;;;;;;;;6285452;28;20170;-65
2022/06/22 09:06:06;;;;;;;6.63;3.08;;;;;;;;;;6284200;28;20143;-66
2022/06/22 09:09:22;;;;;;;8.48;2.92;;;;;;;;;;6283982;28;20403;-66
2022/06/22 09:12:44;;;;;;;6.43;2.50;;;;;;;;;;6281697;28;20052;-67
2022/06/22 09:15:50;;;;;;;6.43;2.60;;;;;;;;;;6282653;28;20048;-66
2022/06/22 09:18:57;;;;;;;10.45;3.20;;;;;;;;;;6285360;28;20067;-67
2022/06/22 09:22:24;;;;;;;10.35;3.10;;;;;;;;;;6283776;28;20083;-66
2022/06/22 09:25:26;;;;;;;7.97;2.97;;;;;;;;;;6285023;28;20411;-67
2022/06/22 09:28:38;;;;;;;6.35;2.80;;;;;;;;;;6283363;28;20449;-66
2022/06/22 09:32:03;;;;;;;6.43;2.83;;;;;;;;;;6284326;28;20090;-66
2022/06/22 09:35:21;;;;;;;6.05;2.65;;;;;;;;;;6290075;28;20095;-66
2022/06/22 09:38:56;;;;;;;11.80;2.72;;;;;;;;;;6288877;28;20048;-66
2022/06/22 09:42:17;;;;;;;6.85;2.45;;;;;;;;;;6290593;28;20040;-66
2022/06/22 09:45:20;;;;;;;6.40;2.80;;;;;;;;;;6287284;28;20047;-67
2022/06/22 09:48:55;;;;;;;7.07;2.80;;;;;;;;;;6289224;28;20082;-66
2022/06/22 09:52:14;;;;;;;6.47;2.63;;;;;;;;;;6289261;28;20036;-66
2022/06/22 09:59:30;;;;;;;4.65;2.28;;;;;;;;;;6286714;28;20052;-66
2022/06/22 10:03:17;;;;;;;4.28;2.40;;;;;;;;;;6292738;28;20083;-66
2022/06/22 10:06:55;;;;;;;6.03;2.40;;;;;;;;;;6276417;28;20589;-66
2022/06/22 10:10:14;;;;;;;5.55;2.33;;;;;;;;;;6288396;28;20053;-66
2022/06/22 10:13:32;;;;;;;7.03;2.38;;;;;;;;;;6285883;28;20461;-67
2022/06/22 10:16:39;;;;;;;5.75;2.50;;;;;;;;;;6287934;28;20932;-66
2022/06/22 10:20:22;;;;;;;4.03;2.22;;;;;;;;;;6289266;28;20041;-67
2022/06/22 10:23:41;;;;;;;5.97;2.38;;;;;;;;;;6288272;28;20518;-66
2022/06/22 10:26:46;;;;;;;4.53;2.40;;;;;;;;;;6290563;28;20579;-67
2022/06/22 10:29:52;;;;;;;5.40;2.00;;;;;;;;;;6287761;28;20063;-66
2022/06/22 10:33:05;;;;;;;5.55;2.05;;;;;;;;;;6287600;28;20494;-67
2022/06/22 10:36:29;;;;;;;6.72;2.17;;;;;;;;;;6290210;28;20076;-66
2022/06/22 10:39:57;;;;;;;4.50;2.17;;;;;;;;;;6284155;28;20400;-66
2022/06/22 10:46:55;;;;;;;5.43;2.17;;;;;;;;;;6287273;28;20037;-66
2022/06/22 10:50:09;;;;;;;5.43;2.72;;;;;;;;;;6289884;28;20072;-67
2022/06/22 10:53:40;;;;;;;6.22;2.58;;;;;;;;;;6289730;28;20041;-67
2022/06/22 10:57:06;;;;;;;4.20;2.20;;;;;;;;;;6288805;28;20047;-67
2022/06/22 11:00:15;;;;;;;4.40;2.13;;;;;;;;;;6289455;28;20098;-66
2022/06/22 11:03:57;;;;;;;5.63;2.35;;;;;;;;;;6288206;28;20560;-66
2022/06/22 11:07:19;;;;;;;4.43;2.10;;;;;;;;;;6281362;28;20043;-66
2022/06/22 11:10:47;;;;;;;6.28;2.10;;;;;;;;;;6284689;28;21486;-67
2022/06/22 11:14:25;;;;;;;3.85;2.05;;;;;;;;;;6284034;28;20091;-67
2022/06/22 11:17:36;;;;;;;3.53;1.98;;;;;;;;;;6292358;28;20127;-67
2022/06/22 11:20:53;;;;;;;5.43;2.22;;;;;;;;;;6294466;28;20035;-67
2022/06/22 11:24:31;;;;;;;6.20;2.10;;;;;;;;;;6294611;28;20040;-67
2022/06/22 11:31:47;;;;;;;4.78;1.92;;;;;;;;;;6304212;28;20092;-67
2022/06/22 11:35:18;;;;;;;4.68;2.00;;;;;;;;;;6293881;28;20051;-67
2022/06/22 11:38:53;;;;;;;6.53;1.83;;;;;;;;;;6296667;28;20101;-68
2022/06/22 11:42:15;;;;;;;5.35;1.77;;;;;;;;;;6304858;28;20574;-67
2022/06/22 11:45:50;;;;;;;4.60;1.88;;;;;;;;;;6298208;28;20106;-67
2022/06/22 11:49:17;;;;;;;3.22;1.80;;;;;;;;;;6303780;28;20419;-67
2022/06/22 11:52:44;;;;;;;4.93;2.08;;;;;;;;;;6296553;28;20092;-67
2022/06/22 11:55:54;;;;;;;3.55;1.90;;;;;;;;;;6299865;28;20035;-66
2022/06/22 11:59:13;;;;;;;11.77;2.08;;;;;;;;;;6285410;28;20484;-67
2022/06/22 12:02:34;;;;;;;5.88;2.15;;;;;;;;;;6291666;28;20037;-67
2022/06/22 12:05:56;;;;;;;3.40;1.90;;;;;;;;;;6297432;28;20490;-67
2022/06/22 12:09:41;;;;;;;3.97;2.15;;;;;;;;;;6303364;28;20339;-67
2022/06/22 12:12:48;;;;;;;5.20;2.15;;;;;;;;;;6300526;28;20052;-67
2022/06/22 12:15:54;;;;;;;4.72;2.15;;;;;;;;;;6310436;28;20028;-67
2022/06/22 12:19:20;;;;;;;4.28;2.08;;;;;;;;;;6310471;28;20043;-68
2022/06/22 12:22:52;;;;;;;5.80;2.00;;;;;;;;;;6285580;28;20052;-67
2022/06/22 12:26:05;;;;;;;4.60;1.80;;;;;;;;;;6299806;28;20478;-67
2022/06/22 12:29:19;;;;;;;9.52;2.20;;;;;;;;;;6302300;28;20036;-67
2022/06/22 12:32:25;;;;;;;4.35;2.00;;;;;;;;;;6311658;28;20051;-67
2022/06/22 12:35:51;;;;;;;4.55;2.00;;;;;;;;;;6300006;28;20095;-68
2022/06/22 12:39:23;;;;;;;4.45;2.10;;;;;;;;;;6305271;28;20036;-68
2022/06/22 12:42:41;;;;;;;6.05;2.20;;;;;;;;;;6302947;28;20075;-67
2022/06/22 12:45:55;;;;;;;4.82;2.10;;;;;;;;;;6301553;28;20125;-67
2022/06/22 12:49:04;;;;;;;6.53;2.25;;;;;;;;;;6296523;28;20135;-67
2022/06/22 12:52:12;;;;;;;6.25;2.28;;;;;;;;;;6302808;28;20044;-67
2022/06/22 12:55:17;;;;;;;4.00;2.00;;;;;;;;;;6285287;28;20059;-67
2022/06/22 12:58:36;;;;;;;4.50;2.00;;;;;;;;;;6302442;28;20052;-67
2022/06/22 13:01:37;;;;;;;6.10;2.15;;;;;;;;;;6300725;28;20544;-67
2022/06/22 13:04:38;;;;;;;8.13;2.47;;;;;;;;;;6296715;28;20040;-68
2022/06/22 13:07:46;;;;;;;3.50;2.10;;;;;;;;;;6301433;28;20032;-67
2022/06/22 13:10:51;;;;;;;5.35;2.10;;;;;;;;;;6298529;28;20534;-68
2022/06/22 13:14:20;;;;;;;4.43;2.20;;;;;;;;;;6272488;28;20056;-67
2022/06/22 13:17:30;;;;;;;5.18;2.38;;;;;;;;;;6263062;28;20143;-68
2022/06/22 13:20:49;;;;;;;5.40;2.30;;;;;;;;;;6266359;28;20052;-68
2022/06/22 13:24:21;;;;;;;4.30;2.28;;;;;;;;;;6263966;28;20198;-67
2022/06/22 13:27:24;;;;;;;;;;;;;;;;;;6268170;28;20534;-67
2022/06/22 13:30:46;;;;;;;3.92;2.22;;;;;;;;;;6266231;28;20386;-65
2022/06/22 13:33:53;;;;;;;;;;;;;;;;;;6262249;28;20403;-68
2022/06/22 13:37:09;;;;;;;5.28;2.20;;;;;;;;;;6266056;28;20001;-66
2022/06/22 13:40:32;;;;;;;3.72;2.03;;;;;;;;;;6265395;28;20431;-67
2022/06/22 13:43:57;;;;;;;5.70;2.40;;;;;;;;;;6259831;28;20139;-67
2022/06/22 13:47:11;;;;;;;6.50;2.97;;;;;;;;;;6265862;28;20487;-68
2022/06/22 13:51:03;;;;;;;4.25;2.10;;;;;;;;;;6265658;28;20110;-68
2022/06/22 13:54:15;;;;;;;7.40;2.40;;;;;;;;;;6259156;28;20053;-68
2022/06/22 13:57:29;;;;;;;5.63;2.20;;;;;;;;;;6263550;28;20195;-67
2022/06/22 14:00:44;;;;;;;4.60;2.08;;;;;;;;;;6263570;28;20092;-68
2022/06/22 14:04:02;;;;;;;3.53;1.77;;;;;;;;;;6260395;28;20080;-67
2022/06/22 14:07:28;;;;;;;5.90;2.30;;;;;;;;;;6264281;28;20045;-67
2022/06/22 14:10:50;;;;;;;4.68;2.15;;;;;;;;;;6264647;28;20717;-68
2022/06/22 14:14:12;;;;;;;5.88;2.10;;;;;;;;;;6263045;28;20106;-67
2022/06/22 14:17:19;;;;;;;3.83;2.30;;;;;;;;;;6266923;28;20724;-67
2022/06/22 14:20:26;;;;;;;3.90;2.00;;;;;;;;;;6269646;28;20055;-68
2022/06/22 14:23:27;;;;;;;3.35;1.92;;;;;;;;;;6268748;28;20723;-67
2022/06/22 14:26:54;;;;;;;5.47;2.07;;;;;;;;;;6270883;28;20087;-68
2022/06/22 14:30:03;;;;;;;3.25;1.90;;;;;;;;;;6263595;28;20080;-66
2022/06/22 14:33:32;;;;;;;5.13;2.00;;;;;;;;;;6269289;28;21683;-67
2022/06/22 14:36:47;;;;;;;3.28;2.00;;;;;;;;;;6270513;28;20072;-67
2022/06/22 14:40:18;;;;;;;3.47;1.90;;;;;;;;;;6264813;28;20301;-67
2022/06/22 14:43:25;;;;;;;3.85;1.98;;;;;;;;;;6267808;28;20166;-68
2022/06/22 14:46:35;;;;;;;4.97;2.08;;;;;;;;;;6270369;28;20056;-67
2022/06/22 14:50:00;;;;;;;3.85;1.80;;;;;;;;;;6269339;28;20094;-67
2022/06/22 14:53:07;;;;;;;4.07;2.08;;;;;;;;;;6268588;28;20396;-67
2022/06/22 14:56:24;;;;;;;5.22;1.85;;;;;;;;;;6268662;28;20088;-67
2022/06/22 15:00:06;;;;;;;4.65;2.00;;;;;;;;;;6270664;28;20446;-67
2022/06/22 15:03:30;;;;;;;3.45;2.08;;;;;;;;;;6186863;28;20066;-67
2022/06/22 15:06:45;;;;;;;5.75;1.77;;;;;;;;;;6196120;28;20470;-67
2022/06/22 15:10:17;;;;;;;4.75;1.83;;;;;;;;;;6270966;28;20060;-67
2022/06/22 15:13:46;;;;;;;16.15;4.60;;;;;;;;;;6266962;28;20126;-67
2022/06/22 15:16:55;;;;;;;5.03;2.10;;;;;;;;;;6260631;28;20084;-67
2022/06/22 15:20:18;;;;;;;5.97;2.00;;;;;;;;;;6267353;28;20740;-67
2022/06/22 15:23:47;;;;;;;6.18;2.72;;;;;;;;;;6267856;28;20873;-68
2022/06/22 15:26:51;;;;;;;4.10;1.90;;;;;;;;;;6270195;28;20151;-67
2022/06/22 15:30:12;;;;;;;4.95;2.08;;;;;;;;;;6267824;28;20143;-67
2022/06/22 15:33:18;;;;;;;4.53;2.10;;;;;;;;;;6249710;28;20527;-67
2022/06/22 15:36:27;;;;;;;8.73;2.13;;;;;;;;;;6265719;28;20561;-67
2022/06/22 15:39:35;;;;;;;5.10;2.15;;;;;;;;;;6269025;28;20460;-68
2022/06/22 15:42:47;;;;;;;6.57;2.45;;;;;;;;;;6266895;28;20094;-67
2022/06/22 15:45:47;;;;;;;4.95;2.28;;;;;;;;;;6268521;28;20045;-68
2022/06/22 15:48:55;;;;;;;3.43;1.83;;;;;;;;;;6265485;28;20113;-67
2022/06/22 15:52:20;;;;;;;3.15;2.00;;;;;;;;;;6264594;28;20052;-66
2022/06/22 15:55:26;;;;;;;4.07;1.80;;;;;;;;;;6269246;28;20072;-66
2022/06/22 15:58:30;;;;;;;14.45;3.92;;;;;;;;;;6268679;28;20129;-67
2022/06/22 16:02:07;;;;;;;4.03;1.85;;;;;;;;;;6268954;28;20139;-64
2022/06/22 16:05:36;;;;;;;4.18;2.20;;;;;;;;;;6257310;28;20072;-66
2022/06/22 16:09:03;;;;;;;3.70;2.30;;;;;;;;;;6269496;28;20147;-65
2022/06/22 16:15:37;;;;;;;4.83;2.07;;;;;;;;;;6267822;28;20068;-67
2022/06/22 16:19:01;;;;;;;6.82;2.40;;;;;;;;;;6270216;28;20056;-69
2022/06/22 16:22:17;;;;;;;4.63;2.20;;;;;;;;;;6271439;28;20060;-69
2022/06/22 16:25:25;;;;;;;5.28;1.98;;;;;;;;;;6268634;28;20492;-68
2022/06/22 16:28:54;;;;;;;6.18;2.25;;;;;;;;;;6269393;28;20148;-67
2022/06/22 16:32:21;;;;;;;4.97;2.20;;;;;;;;;;6268847;28;20052;-67
2022/06/22 16:35:21;;;;;;;4.47;2.25;;;;;;;;;;6269448;28;20145;-67
2022/06/22 16:38:29;;;;;;;5.03;2.07;;;;;;;;;;6265135;28;20049;-67
2022/06/22 16:41:52;;;;;;;3.80;2.10;;;;;;;;;;6266327;28;20155;-67
2022/06/22 16:45:03;;;;;;;5.95;2.40;;;;;;;;;;6264216;28;20056;-67
2022/06/22 16:48:15;;;;;;;3.67;1.90;;;;;;;;;;6267223;28;20045;-67
2022/06/22 16:51:23;;;;;;;5.78;1.90;;;;;;;;;;6267688;28;20049;-68
2022/06/22 16:54:36;;;;;;;7.25;1.90;;;;;;;;;;6262707;28;20051;-66
2022/06/22 16:57:44;;;;;;;26.85;6.93;;;;;;;;;;6268866;28;20500;-66
2022/06/22 17:01:00;;;;;;;5.45;2.40;;;;;;;;;;6268041;28;20091;-64
2022/06/22 17:04:19;;;;;;;4.28;1.98;;;;;;;;;;6262183;28;20147;-63
2022/06/22 17:07:43;;;;;;;4.75;2.13;;;;;;;;;;6270411;28;20060;-69
2022/06/22 17:10:44;;;;;;;4.35;2.03;;;;;;;;;;6271964;28;20067;-69
2022/06/22 17:13:49;;;;;;;6.50;2.50;;;;;;;;;;6268199;28;20056;-75
2022/06/22 17:17:13;;;;;;;4.88;2.72;;;;;;;;;;6266819;28;20049;-71
2022/06/22 17:20:13;;;;;;;5.72;2.67;;;;;;;;;;6264544;28;20630;-74
2022/06/22 17:23:27;;;;;;;4.70;2.50;;;;;;;;;;6269386;28;20822;-72
2022/06/22 17:26:45;;;;;;;9.32;3.30;;;;;;;;;;6271545;28;20135;-71
2022/06/22 17:30:04;;;;;;;8.63;3.42;;;;;;;;;;6265171;28;20057;-65
2022/06/22 17:33:27;;;;;;;6.22;2.70;;;;;;;;;;6268385;28;20056;-66
2022/06/22 17:36:59;;;;;;;7.70;2.63;;;;;;;;;;6271621;28;20548;-68
2022/06/22 17:40:06;;;;;;;5.93;2.63;;;;;;;;;;6262116;28;20576;-67
2022/06/22 17:43:14;;;;;;;13.25;3.40;;;;;;;;;;6263220;28;20056;-71
2022/06/22 17:46:19;;;;;;;13.05;4.38;;;;;;;;;;6265215;28;20048;-64
2022/06/22 17:49:20;;;;;;;11.13;3.47;;;;;;;;;;6267868;28;20040;-66
2022/06/22 17:52:27;;;;;;;7.68;2.90;;;;;;;;;;6264662;28;20145;-67
2022/06/22 17:55:36;;;;;;;9.00;5.03;;;;;;;;;;6271511;28;20094;-66
2022/06/22 17:58:41;;;;;;;5.82;3.53;;;;;;;;;;6265705;28;20072;-66
2022/06/22 18:01:50;;;;;;;6.47;2.83;;;;;;;;;;6272642;28;20064;-66
2022/06/22 18:05:10;;;;;;;9.38;3.20;;;;;;;;;;6270014;28;20067;-65
2022/06/22 18:08:27;;;;;;;10.32;3.75;;;;;;;;;;6268677;28;20083;-68
2022/06/22 18:11:36;;;;;;;9.48;4.22;;;;;;;;;;6269420;28;20967;-65
2022/06/22 18:14:43;;;;;;;10.80;4.97;;;;;;;;;;6268463;28;21090;-67
2022/06/22 18:17:53;;;;;;;10.60;4.80;;;;;;;;;;6266372;28;20507;-68
2022/06/22 18:20:57;;;;;;;14.38;6.05;;;;;;;;;;6268165;28;20065;-66
2022/06/22 18:23:57;;;;;;;12.30;4.65;;;;;;;;;;6268369;28;20135;-69
2022/06/22 18:26:58;;;;;;;10.63;4.60;;;;;;;;;;6271330;28;20093;-65
2022/06/22 18:30:08;;;;;;;14.37;4.63;;;;;;;;;;6272400;28;20044;-74
2022/06/22 18:33:18;;;;;;;13.38;6.40;;;;;;;;;;6268148;28;20763;-69
2022/06/22 18:36:54;;;;;;;12.45;5.80;;;;;;;;;;6267849;28;20068;-69
2022/06/22 18:43:43;;;;;;;9.32;4.03;;;;;;;;;;6269582;28;20098;-71
2022/06/22 18:47:09;;;;;;;9.73;3.97;;;;;;;;;;6271114;28;20045;-70
2022/06/22 18:50:25;;;;;;;8.82;3.60;;;;;;;;;;6272024;28;20049;-69
2022/06/22 18:53:31;;;;;;;7.65;3.97;;;;;;;;;;6270097;28;20204;-70
2022/06/22 18:56:44;;;;;;;9.27;4.70;;;;;;;;;;6270368;28;20399;-71
2022/06/22 18:59:48;;;;;;;10.07;4.15;;;;;;;;;;6267809;28;20048;-72
2022/06/22 19:02:54;;;;;;;12.93;4.55;;;;;;;;;;6266304;28;20044;-70
2022/06/22 19:06:06;;;;;;;10.38;4.45;;;;;;;;;;6267287;28;20087;-70
2022/06/22 19:09:13;;;;;;;7.57;4.20;;;;;;;;;;6268950;28;20850;-69
2022/06/22 19:12:25;;;;;;;10.23;4.60;;;;;;;;;;6264666;28;20083;-70
2022/06/22 19:15:35;;;;;;;8.90;3.92;;;;;;;;;;6267854;28;20156;-69
2022/06/22 19:19:03;;;;;;;8.10;4.00;;;;;;;;;;6269812;28;20854;-68
2022/06/22 19:22:32;;;;;;;8.73;4.15;;;;;;;;;;6265884;28;20072;-69
2022/06/22 19:25:44;;;;;;;8.40;4.38;;;;;;;;;;6267717;28;20082;-69
2022/06/22 19:28:55;;;;;;;8.95;3.95;;;;;;;;;;6271052;28;20199;-69
2022/06/22 19:32:23;;;;;;;7.10;3.93;;;;;;;;;;6270215;28;20419;-68
2022/06/22 19:35:45;;;;;;;8.85;4.25;;;;;;;;;;6269661;28;20041;-69
2022/06/22 19:39:20;;;;;;;9.13;4.63;;;;;;;;;;6266830;28;20518;-69
2022/06/22 19:42:33;;;;;;;9.35;3.70;;;;;;;;;;6268325;28;20123;-67